Impacts TAF Board
For situational awareness. Not to be used for flight planning purposes.
IDs:

KSFO - San Francisco Intl, CA, US

Issued at 2327 UTC 23 May 2019
Updated at 0046 UTC 24 May 2019
Potential Impact None Slight Moderate High
Time2356Z 24/01Z 24/02Z 24/03Z 24/04Z 24/05Z 24/06Z 24/07Z 24/08Z 24/09Z 24/10Z 24/11Z 24/12Z 24/13Z>>
Type OBS PRVL PRVL PRVL PRVL PRVL PRVL PRVL PRVL PRVL PRVL PRVL PRVL PRVL
VIS 10 >6 >6 >6 >6 >6 >6 >6 >6 >6 >6 >6 >6 >6
CIG -- -- -- -- -- -- -- -- -- 15 15 15 15 15
Cover SCT FEW FEW FEW FEW FEW FEW FEW FEW BKN BKN BKN BKN BKN
FltCat VFR VFR VFR VFR VFR VFR VFR VFR VFR MVFR MVFR MVFR MVFR MVFR
WX -- -- -- -- -- -- -- -- -- -- -- -- -- --
WDir 190 280 280 230 230 230 230 230 230 230 230 230 230 230
WSpd 10 14 14 8 8 8 8 8 8 6 6 6 6 6
WGst -- -- -- -- -- -- -- -- -- -- -- -- -- --
Raw TAF
KSFO 232327Z 2400/2506 28014KT P6SM FEW040
  FM240300 23008KT P6SM FEW015
  FM240900 23006KT P6SM BKN015
  FM241730 20005KT P6SM SCT015
  FM242100 28012KT P6SM SCT040
  FM250400 29008KT P6SM FEW015


Raw METAR
KSFO 232356Z 19010KT 10SM FEW018 FEW060 SCT150 19/11 A2984 RMK AO2 SLP105 T01940106 10217 20178 53007
KSFO 232256Z 21006KT 10SM FEW018 FEW060 SCT180 20/11 A2983 RMK AO2 SLP101 T02000111
KSFO 232156Z 21007KT 10SM FEW015 FEW035 21/11 A2982 RMK AO2 SLP098 T02110111

METAR Board
Radar Display
Forecast Discussion
For situational awareness. Not to be used for flight planning purposes.